Time;durP1;ratioP1;P1;durP2;ratioP2;P2;SDS_P1;SDS_P2;PMS_P1;PMS_P2;Temp;Humidity;BMP_temperature;BMP_pressure;BME280_temperature;BME280_humidity;BME280_pressure;Samples;Min_cycle;Max_cycle;Signal;HPM_P1;HPM_P2
2021/06/08 00:01:11;;;;;;;;;;;14.50;94.20;;;;;;5937868;39;19944;-78
2021/06/08 00:05:13;;;;;;;;;;;14.40;94.10;;;;;;5948254;39;19951;-79
2021/06/08 00:09:15;;;;;;;;;;;14.40;94.10;;;;;;5961249;39;19955;-77
2021/06/08 00:13:17;;;;;;;;;;;13.50;93.90;;;;;;5954288;39;19928;-78
2021/06/08 00:17:19;;;;;;;;;;;16.20;94.90;;;;;;5943500;39;19945;-77
2021/06/08 00:21:21;;;;;;;;;;;14.30;94.20;;;;;;5943676;39;19955;-78
2021/06/08 00:25:22;;;;;;;;;;;14.60;94.20;;;;;;5934761;39;20025;-77
2021/06/08 00:29:24;;;;;;;;;;;14.20;94.10;;;;;;5934803;39;20373;-77
2021/06/08 00:33:26;;;;;;;;;;;14.10;94.00;;;;;;5943701;39;19945;-78
2021/06/08 00:37:28;;;;;;;;;;;15.20;94.40;;;;;;5938743;39;19949;-76
2021/06/08 00:41:33;;;;;;;;;;;15.70;94.50;;;;;;5946875;39;20428;-79
2021/06/08 00:45:35;;;;;;;;;;;13.90;94.10;;;;;;5940256;40;20150;-77
2021/06/08 00:49:37;;;;;;;;;;;13.90;94.10;;;;;;5947849;39;19937;-78
2021/06/08 00:53:39;;;;;;;;;;;14.00;94.10;;;;;;5941179;39;19941;-77
2021/06/08 00:57:41;;;;;;;;;;;13.80;94.00;;;;;;5939356;39;20376;-77
2021/06/08 01:01:43;;;;;;;;;;;15.80;94.60;;;;;;5932596;39;19948;-77
2021/06/08 01:05:45;;;;;;;;;;;13.70;94.10;;;;;;5936353;39;20029;-76
2021/06/08 01:09:46;;;;;;;;;;;13.70;94.10;;;;;;5940308;39;19941;-76
2021/06/08 01:13:48;;;;;;;;;;;13.80;94.10;;;;;;5941674;39;19936;-76
2021/06/08 01:17:51;;;;;;;;;;;13.60;94.00;;;;;;5948265;39;19953;-77
2021/06/08 01:21:52;;;;;;;;;;;13.50;94.00;;;;;;5932123;39;19945;-76
2021/06/08 01:25:55;;;;;;;;;;;13.60;94.00;;;;;;5937365;39;20513;-76
2021/06/08 01:29:59;;;;;;;;;;;13.40;94.00;;;;;;5940430;39;20326;-76
2021/06/08 01:34:01;;;;;;;;;;;13.40;94.00;;;;;;5937999;39;19959;-76
2021/06/08 01:38:03;;;;;;;;;;;13.30;93.90;;;;;;5939027;40;19945;-76
2021/06/08 01:42:05;;;;;;;;;;;14.60;94.20;;;;;;5932252;39;19937;-76
2021/06/08 01:46:08;;;;;;;;;;;13.30;93.90;;;;;;5931439;39;19972;-76
2021/06/08 01:50:10;;;;;;;;;;;12.40;93.60;;;;;;5947894;39;20220;-76
2021/06/08 01:54:21;;;;;;;;;;;13.10;93.90;;;;;;5937999;39;20299;-78
2021/06/08 01:58:31;;;;;;;;;;;13.10;93.90;;;;;;5931335;39;19948;-79
2021/06/08 02:02:43;;;;;;;;;;;13.10;93.80;;;;;;5927842;39;19952;-79
2021/06/08 02:06:49;;;;;;;;;;;13.00;93.80;;;;;;5951726;39;19959;-79
2021/06/08 02:10:54;;;;;;;;;;;12.90;93.80;;;;;;5949051;39;19944;-79
2021/06/08 02:14:58;;;;;;;;;;;12.80;93.80;;;;;;5941507;39;19955;-80
2021/06/08 02:19:00;;;;;;;;;;;12.50;93.60;;;;;;5940534;39;19933;-79
2021/06/08 02:23:04;;;;;;;;;;;12.70;93.80;;;;;;5945091;39;19980;-77
2021/06/08 02:27:07;;;;;;;;;;;12.80;93.80;;;;;;5931748;39;19960;-80
2021/06/08 02:31:09;;;;;;;;;;;12.60;93.70;;;;;;5952657;39;19955;-84
2021/06/08 02:35:12;;;;;;;;;;;12.40;93.70;;;;;;5944825;39;19960;-79
2021/06/08 02:39:14;;;;;;;;;;;12.40;93.70;;;;;;5953926;39;19997;-79
2021/06/08 02:43:18;;;;;;;;;;;12.40;93.70;;;;;;5930672;40;19944;-79
2021/06/08 02:47:20;;;;;;;;;;;12.40;93.70;;;;;;5945288;39;20404;-78
2021/06/08 02:51:23;;;;;;;;;;;12.30;93.70;;;;;;5944674;39;19949;-78
2021/06/08 02:55:26;;;;;;;;;;;12.30;93.70;;;;;;5942317;39;20015;-79
2021/06/08 02:59:31;;;;;;;;;;;12.20;93.70;;;;;;5941011;39;20216;-79
2021/06/08 03:03:36;;;;;;;;;;;13.20;93.90;;;;;;5940035;40;19936;-78
2021/06/08 03:07:39;;;;;;;;;;;14.10;94.10;;;;;;5948905;39;19948;-80
2021/06/08 03:11:49;;;;;;;;;;;12.30;93.70;;;;;;5942268;39;19949;-79
2021/06/08 03:15:55;;;;;;;;;;;11.90;93.70;;;;;;5941718;39;19944;-79
2021/06/08 03:20:03;;;;;;;;;;;11.90;93.80;;;;;;5940843;39;19950;-79
2021/06/08 03:24:06;;;;;;;;;;;11.80;93.80;;;;;;5942594;39;19940;-79
2021/06/08 03:28:09;;;;;;;;;;;11.80;93.80;;;;;;5947556;39;19953;-79
2021/06/08 03:32:11;;;;;;;;;;;13.30;94.20;;;;;;5940326;40;20007;-79
2021/06/08 03:36:13;;;;;;;;;;;11.80;94.00;;;;;;5945369;39;19964;-78
2021/06/08 03:40:16;;;;;;;;;;;11.70;94.50;;;;;;5945384;39;20349;-80
2021/06/08 03:44:18;;;;;;;;;;;12.20;94.70;;;;;;5942622;39;19937;-80
2021/06/08 03:48:20;;;;;;;;;;;10.70;94.30;;;;;;5945468;39;19933;-80
2021/06/08 03:52:24;;;;;;;;;;;11.70;94.70;;;;;;5944638;39;19956;-80
2021/06/08 03:56:28;;;;;;;;;;;11.90;94.40;;;;;;5944835;39;20380;-77
2021/06/08 04:00:29;;;;;;;;;;;11.90;94.30;;;;;;5944282;39;20123;-79
2021/06/08 04:04:31;;;;;;;;;;;11.40;94.30;;;;;;5936818;39;20003;-77
2021/06/08 04:08:33;;;;;;;;;;;11.80;93.90;;;;;;5942111;39;20882;-78
2021/06/08 04:12:36;;;;;;;;;;;11.80;93.90;;;;;;5939012;39;19986;-78
2021/06/08 04:16:38;;;;;;;;;;;12.50;93.90;;;;;;5942498;39;19948;-77
2021/06/08 04:20:41;;;;;;;;;;;14.20;94.80;;;;;;5943321;39;19951;-78
2021/06/08 04:24:46;;;;;;;;;;;11.90;94.40;;;;;;5944727;39;20335;-78
2021/06/08 04:28:48;;;;;;;;;;;11.70;94.80;;;;;;5948835;40;19944;-78
2021/06/08 04:32:50;;;;;;;;;;;11.80;94.40;;;;;;5944534;39;20004;-80
2021/06/08 04:36:51;;;;;;;;;;;13.30;95.00;;;;;;5931596;40;20659;-79
2021/06/08 04:40:53;;;;;;;;;;;11.90;96.30;;;;;;5933266;40;19941;-81
2021/06/08 04:44:55;;;;;;;;;;;11.70;96.30;;;;;;5954918;39;20369;-78
2021/06/08 04:48:57;;;;;;;;;;;13.40;97.40;;;;;;5948540;39;19932;-80
2021/06/08 04:53:05;;;;;;;;;;;11.40;97.90;;;;;;5954059;39;19943;-80
2021/06/08 04:57:07;;;;;;;;;;;12.00;99.80;;;;;;5940887;39;20180;-81
2021/06/08 05:01:17;;;;;;;;;;;11.60;98.60;;;;;;5949900;39;19986;-77
2021/06/08 05:05:22;;;;;;;;;;;11.70;98.60;;;;;;5957089;39;19932;-79
2021/06/08 05:09:30;;;;;;;;;;;11.50;96.00;;;;;;5967648;39;19937;-80
2021/06/08 05:13:33;;;;;;;;;;;11.70;99.50;;;;;;5942087;39;19936;-81
2021/06/08 05:17:36;;;;;;;;;;;11.70;97.90;;;;;;5946726;39;20410;-79
2021/06/08 05:21:38;;;;;;;;;;;12.20;96.40;;;;;;5950554;39;19932;-80
2021/06/08 05:25:42;;;;;;;;;;;11.70;96.30;;;;;;5959345;39;19936;-81
2021/06/08 05:29:44;;;;;;;;;;;10.80;96.70;;;;;;5952831;39;19936;-80
2021/06/08 08:30:37;;;;;;;;;;;19.90;99.90;;;;;;5891432;40;20474;-81
2021/06/08 08:34:39;;;;;;;;;;;20.80;99.90;;;;;;5878687;40;19935;-81
2021/06/08 08:38:42;;;;;;;;;;;22.20;97.00;;;;;;5851076;40;20336;-82
2021/06/08 08:42:45;;;;;;;;;;;20.30;99.90;;;;;;5863218;40;20376;-80
2021/06/08 08:47:03;;;;;;;;;;;20.20;98.40;;;;;;5850970;40;20224;-82
2021/06/08 08:51:05;;;;;;;;;;;20.60;98.90;;;;;;5853698;40;19942;-81
2021/06/08 08:55:07;;;;;;;;;;;20.80;95.50;;;;;;5867899;40;19949;-80
2021/06/08 08:59:10;;;;;;;;;;;20.90;93.50;;;;;;5853462;40;20005;-80
2021/06/08 09:03:13;;;;;;;;;;;21.90;91.80;;;;;;5850418;40;20258;-81
2021/06/08 09:07:17;;;;;;;;;;;21.30;77.60;;;;;;5853766;40;19963;-80
2021/06/08 09:11:20;;;;;;;;;;;22.40;77.60;;;;;;5849611;40;19949;-78
2021/06/08 09:15:21;;;;;;;;;;;21.00;76.30;;;;;;5847949;40;19943;-81
2021/06/08 09:19:27;;;;;;;;;;;22.00;73.10;;;;;;5838710;40;19962;-81
2021/06/08 09:23:29;;;;;;;;;;;21.10;81.30;;;;;;5842799;40;19959;-80
2021/06/08 09:27:31;;;;;;;;;;;21.10;75.00;;;;;;5845828;40;20388;-81
2021/06/08 09:31:32;;;;;;;;;;;21.30;75.30;;;;;;5841293;40;20258;-81
2021/06/08 09:35:34;;;;;;;;;;;22.20;71.10;;;;;;5823515;40;66529;-80
2021/06/08 09:40:50;;;;;;;;;;;21.50;76.70;;;;;;5942044;39;19959;-80
2021/06/08 09:47:34;;;;;;;4.50;0.95;;;23.50;79.00;;;;;;5949773;39;21080;-80
2021/06/08 09:51:55;;;;;;;3.03;1.02;;;22.20;83.80;;;;;;5935227;39;20062;-80
2021/06/08 09:56:07;;;;;;;1.67;0.90;;;22.50;84.30;;;;;;5943681;39;20052;-79
2021/06/08 10:00:09;;;;;;;2.03;1.00;;;22.70;80.80;;;;;;5934362;40;20048;-80
2021/06/08 10:04:31;;;;;;;2.63;0.70;;;22.80;81.00;;;;;;5936404;40;20055;-79
2021/06/08 10:08:34;;;;;;;4.60;1.00;;;22.90;77.80;;;;;;5935477;39;20071;-80
2021/06/08 10:12:58;;;;;;;2.50;0.70;;;23.00;79.60;;;;;;5933524;40;20049;-79
2021/06/08 10:17:01;;;;;;;1.83;0.70;;;23.00;77.80;;;;;;5933884;39;20099;-79
2021/06/08 10:21:03;;;;;;;2.65;0.57;;;23.10;74.30;;;;;;5940548;39;20063;-78
2021/06/08 10:25:06;;;;;;;0.82;0.50;;;23.10;72.70;;;;;;5929268;40;20048;-79
2021/06/08 10:29:10;;;;;;;2.03;0.60;;;22.90;71.50;;;;;;5932612;40;20052;-79
2021/06/08 10:33:12;;;;;;;1.30;0.50;;;22.90;76.50;;;;;;5931981;39;20040;-79
2021/06/08 10:37:36;;;;;;;2.10;0.73;;;23.10;74.90;;;;;;5926954;40;20049;-79
2021/06/08 10:41:41;;;;;;;0.95;0.50;;;23.40;76.70;;;;;;5931971;40;20503;-78
2021/06/08 10:45:45;;;;;;;1.75;0.60;;;23.60;74.00;;;;;;5930962;39;20617;-78
2021/06/08 10:49:49;;;;;;;1.23;0.47;;;23.80;77.40;;;;;;5931269;40;20079;-79
2021/06/08 10:53:54;;;;;;;4.20;0.80;;;24.00;74.50;;;;;;5929860;39;20495;-78
2021/06/08 10:57:56;;;;;;;1.15;0.60;;;24.30;74.20;;;;;;5918903;40;20480;-78
2021/06/08 11:01:58;;;;;;;1.30;0.50;;;24.60;74.50;;;;;;5919263;40;20056;-79
2021/06/08 11:06:00;;;;;;;1.30;0.50;;;24.80;73.40;;;;;;5920391;40;20041;-78
2021/06/08 11:10:22;;;;;;;0.70;0.40;;;25.00;72.10;;;;;;5920172;40;20120;-79
2021/06/08 11:14:34;;;;;;;;;;;25.10;75.30;;;;;;5916780;40;20049;-78
2021/06/08 11:18:35;;;;;;;0.70;0.30;;;25.30;63.70;;;;;;5907396;40;20328;-78
2021/06/08 11:22:40;;;;;;;1.17;0.30;;;25.30;70.10;;;;;;5904003;40;20384;-78
2021/06/08 11:26:50;;;;;;;1.27;0.40;;;25.40;69.70;;;;;;5903463;40;20061;-78
2021/06/08 11:30:52;;;;;;;1.50;0.47;;;25.50;70.10;;;;;;5916864;40;20052;-78
2021/06/08 11:35:18;;;;;;;1.75;0.60;;;25.50;69.80;;;;;;5901738;40;20064;-78
2021/06/08 11:39:21;;;;;;;1.92;0.68;;;25.60;63.90;;;;;;5914601;40;20056;-79
2021/06/08 11:43:23;;;;;;;2.10;0.82;;;25.50;67.10;;;;;;5897213;40;20049;-78
2021/06/08 11:47:34;;;;;;;0.82;0.40;;;25.50;68.80;;;;;;5901779;40;20316;-78
2021/06/08 11:51:39;;;;;;;1.40;0.50;;;25.60;71.40;;;;;;5906864;40;20041;-79
2021/06/08 11:55:44;;;;;;;0.75;0.40;;;25.70;68.20;;;;;;5902306;40;20326;-79
2021/06/08 11:59:45;;;;;;;0.90;0.60;;;26.00;68.80;;;;;;5911742;40;20093;-78
2021/06/08 12:03:59;;;;;;;2.17;0.60;;;26.10;68.40;;;;;;5922710;40;20056;-79
2021/06/08 12:08:08;;;;;;;4.15;0.70;;;26.10;69.80;;;;;;5900114;40;20075;-78
2021/06/08 12:12:15;;;;;;;1.45;0.50;;;25.90;69.20;;;;;;5905798;40;20143;-78
2021/06/08 12:16:17;;;;;;;1.58;0.70;;;25.70;68.00;;;;;;5913224;40;20060;-77
2021/06/08 12:20:21;;;;;;;2.40;0.70;;;25.70;68.40;;;;;;5907607;40;20047;-78
2021/06/08 12:24:23;;;;;;;1.67;0.68;;;26.00;68.30;;;;;;5906632;40;20336;-78
2021/06/08 12:28:25;;;;;;;1.55;0.63;;;26.10;68.70;;;;;;5901456;40;20328;-78
2021/06/08 12:32:27;;;;;;;1.67;0.90;;;26.10;67.70;;;;;;5896817;40;20552;-78
2021/06/08 12:36:29;;;;;;;1.20;0.60;;;26.10;66.50;;;;;;5904864;40;20046;-78
2021/06/08 12:40:31;;;;;;;1.25;0.50;;;25.80;67.30;;;;;;5893180;40;20085;-78
2021/06/08 12:44:35;;;;;;;1.23;0.60;;;26.30;69.30;;;;;;5907938;40;20037;-78
2021/06/08 12:48:36;;;;;;;2.15;0.60;;;25.80;67.60;;;;;;5904655;40;20049;-78
2021/06/08 12:52:38;;;;;;;1.38;0.70;;;25.70;66.10;;;;;;5891832;40;20127;-78
2021/06/08 12:56:40;;;;;;;1.70;0.77;;;25.70;69.30;;;;;;5907985;40;20079;-79
2021/06/08 13:00:43;;;;;;;3.88;0.90;;;25.80;66.20;;;;;;5904615;40;20042;-77
2021/06/08 13:04:47;;;;;;;2.58;0.90;;;25.50;67.80;;;;;;5919405;40;20091;-78
2021/06/08 13:08:50;;;;;;;3.60;1.05;;;25.80;70.70;;;;;;5914542;40;20061;-78
2021/06/08 13:12:54;;;;;;;2.17;0.90;;;25.70;70.10;;;;;;5898730;40;20052;-78
2021/06/08 13:16:57;;;;;;;2.60;0.95;;;25.70;69.70;;;;;;5907379;40;20116;-78
2021/06/08 13:20:59;;;;;;;4.88;1.10;;;25.70;71.10;;;;;;5919012;40;20139;-78
2021/06/08 13:25:01;;;;;;;3.95;0.80;;;25.80;69.80;;;;;;5900753;40;20053;-77
2021/06/08 13:29:33;;;;;;;1.05;0.68;;;26.00;69.90;;;;;;5898950;40;20750;-78
2021/06/08 13:33:38;;;;;;;2.33;1.10;;;25.90;73.60;;;;;;5902960;40;20505;-78
2021/06/08 13:37:48;;;;;;;3.63;0.98;;;25.90;70.00;;;;;;5900110;40;20050;-78
2021/06/08 13:41:54;;;;;;;1.75;0.80;;;25.90;70.40;;;;;;5907099;40;20049;-78
2021/06/08 13:45:56;;;;;;;2.53;0.70;;;25.90;69.40;;;;;;5901018;40;20034;-79
2021/06/08 13:49:59;;;;;;;3.70;0.70;;;26.00;69.70;;;;;;5906274;40;20088;-79
2021/06/08 13:54:08;;;;;;;2.08;0.65;;;25.90;69.00;;;;;;5906560;40;20126;-78
2021/06/08 14:02:51;;;;;;;2.83;0.70;;;25.70;68.50;;;;;;5900415;40;20046;-78
2021/06/08 14:06:56;;;;;;;1.85;0.65;;;25.50;65.50;;;;;;5900672;40;20065;-78
2021/06/08 14:10:59;;;;;;;2.15;0.50;;;25.50;68.90;;;;;;5905712;40;20112;-77
2021/06/08 14:15:06;;;;;;;2.38;0.60;;;25.40;68.80;;;;;;5906767;40;20118;-77
2021/06/08 14:19:08;;;;;;;2.92;0.70;;;25.40;67.70;;;;;;5899996;40;20056;-78
2021/06/08 14:23:13;;;;;;;1.50;0.60;;;25.30;68.10;;;;;;5893900;40;20081;-77
2021/06/08 14:27:18;;;;;;;3.05;0.88;;;25.20;67.10;;;;;;5894545;40;20073;-77
2021/06/08 14:31:19;;;;;;;1.77;0.52;;;25.10;68.10;;;;;;5899071;40;20056;-77
2021/06/08 14:35:22;;;;;;;2.15;0.60;;;25.00;67.80;;;;;;5902426;40;20060;-77
2021/06/08 14:39:23;;;;;;;2.47;0.60;;;24.90;66.70;;;;;;5900469;40;20050;-77
2021/06/08 14:43:25;;;;;;;2.05;0.50;;;24.90;66.40;;;;;;5897029;40;20053;-77
2021/06/08 14:47:27;;;;;;;1.52;0.50;;;24.70;66.40;;;;;;5896866;40;58494;-77
2021/06/08 14:51:29;;;;;;;1.45;0.50;;;24.70;65.70;;;;;;5885770;40;20083;-77
2021/06/08 14:55:31;;;;;;;2.60;0.60;;;24.60;66.40;;;;;;5910656;40;20042;-77
2021/06/08 14:59:33;;;;;;;1.85;0.40;;;24.60;66.10;;;;;;5886085;40;20515;-77
2021/06/08 15:03:35;;;;;;;2.47;0.60;;;24.60;64.90;;;;;;5874653;40;20034;-76
2021/06/08 15:07:37;;;;;;;1.00;0.50;;;24.40;64.70;;;;;;5887514;40;20515;-77
2021/06/08 15:11:39;;;;;;;2.15;0.50;;;24.40;64.50;;;;;;5898604;40;20042;-77
2021/06/08 15:15:41;;;;;;;2.65;0.47;;;24.30;64.60;;;;;;5890948;40;20050;-77
2021/06/08 15:19:44;;;;;;;1.70;0.63;;;24.30;64.60;;;;;;5886039;40;20398;-77
2021/06/08 15:23:46;;;;;;;1.50;0.40;;;24.50;64.30;;;;;;5887130;40;20046;-78
2021/06/08 15:27:48;;;;;;;1.17;0.45;;;24.20;63.50;;;;;;5889032;40;20104;-77
2021/06/08 15:31:50;;;;;;;1.35;0.50;;;24.10;64.20;;;;;;5888477;40;20151;-77
2021/06/08 15:35:57;;;;;;;1.20;0.65;;;24.00;64.00;;;;;;5897899;40;20053;-77
2021/06/08 15:39:59;;;;;;;3.08;0.60;;;23.80;63.90;;;;;;5902374;40;20135;-77
2021/06/08 15:44:01;;;;;;;1.65;0.50;;;23.80;64.10;;;;;;5912681;40;20041;-77
2021/06/08 15:48:03;;;;;;;1.17;0.50;;;23.70;64.80;;;;;;5909442;40;20303;-77
2021/06/08 15:52:05;;;;;;;2.95;0.77;;;23.50;62.10;;;;;;5902375;40;20061;-77
2021/06/08 15:56:08;;;;;;;0.98;0.40;;;23.50;64.50;;;;;;5900404;40;20045;-77
2021/06/08 16:00:11;;;;;;;1.80;0.50;;;23.40;63.70;;;;;;5900384;40;20037;-77
2021/06/08 16:04:12;;;;;;;2.65;0.52;;;23.50;63.90;;;;;;5900124;40;20112;-77
2021/06/08 16:08:14;;;;;;;1.08;0.50;;;23.40;64.50;;;;;;5903150;40;20365;-77
2021/06/08 16:12:16;;;;;;;1.00;0.43;;;23.50;63.80;;;;;;5909978;40;20054;-77
2021/06/08 16:16:18;;;;;;;1.95;0.47;;;23.40;62.90;;;;;;5889900;40;20393;-77
2021/06/08 16:20:20;;;;;;;1.70;0.47;;;23.50;62.60;;;;;;5902553;40;20113;-78
2021/06/08 16:24:23;;;;;;;0.80;0.40;;;23.50;62.50;;;;;;5887615;40;20393;-77
2021/06/08 16:28:25;;;;;;;1.33;0.47;;;23.40;63.80;;;;;;5886805;40;20656;-77
2021/06/08 16:32:27;;;;;;;1.20;0.52;;;23.40;62.90;;;;;;5889102;40;20098;-76
2021/06/08 16:36:29;;;;;;;1.73;0.63;;;23.40;63.50;;;;;;5881695;40;20062;-77
2021/06/08 16:40:31;;;;;;;2.42;0.52;;;23.30;64.00;;;;;;5887080;40;20062;-77
2021/06/08 16:44:33;;;;;;;1.60;0.40;;;23.10;64.20;;;;;;5885510;40;20133;-77
2021/06/08 16:48:38;;;;;;;2.08;0.40;;;23.10;63.60;;;;;;5880377;40;20049;-77
2021/06/08 16:57:00;;;;;;;1.45;0.55;;;23.10;63.60;;;;;;5887095;40;20046;-77
2021/06/08 17:01:02;;;;;;;1.20;0.45;;;22.80;64.30;;;;;;5899773;40;20037;-77
2021/06/08 17:05:05;;;;;;;0.90;0.40;;;22.70;63.90;;;;;;5893287;40;20187;-77
2021/06/08 17:09:07;;;;;;;1.35;0.30;;;22.80;63.60;;;;;;5884906;40;20715;-77
2021/06/08 17:13:09;;;;;;;1.13;0.60;;;22.70;63.70;;;;;;5884116;40;20325;-77
2021/06/08 17:17:11;;;;;;;0.93;0.50;;;22.60;63.60;;;;;;5882528;40;20065;-76
2021/06/08 17:21:13;;;;;;;2.50;0.50;;;22.50;64.00;;;;;;5884957;40;20050;-76
2021/06/08 17:25:15;;;;;;;;;;;22.50;63.90;;;;;;5884827;40;20062;-76
2021/06/08 17:29:17;;;;;;;1.48;0.60;;;22.50;68.30;;;;;;5881139;40;20019;-76
2021/06/08 17:33:21;;;;;;;1.98;0.57;;;22.50;65.20;;;;;;5884378;40;20053;-76
2021/06/08 17:37:25;;;;;;;4.65;0.80;;;22.40;64.30;;;;;;5882665;40;20108;-76
2021/06/08 17:41:27;;;;;;;5.22;2.05;;;22.30;64.60;;;;;;5892190;40;20341;-76
2021/06/08 17:45:29;;;;;;;3.00;1.02;;;22.30;65.40;;;;;;5898745;40;20030;-76
2021/06/08 17:49:31;;;;;;;1.25;0.63;;;22.20;65.60;;;;;;5917963;40;20562;-77
2021/06/08 17:53:34;;;;;;;3.58;0.90;;;22.10;65.20;;;;;;5908037;40;20061;-76
2021/06/08 17:57:36;;;;;;;2.38;0.50;;;22.10;66.20;;;;;;5894887;40;20053;-77
2021/06/08 18:01:39;;;;;;;3.60;0.70;;;22.00;65.60;;;;;;5899859;40;20139;-76
2021/06/08 18:05:44;;;;;;;2.03;0.60;;;22.40;65.80;;;;;;5901928;40;20065;-77
2021/06/08 18:09:46;;;;;;;4.03;0.80;;;21.80;65.70;;;;;;5903691;40;20049;-76
2021/06/08 18:13:48;;;;;;;;;;;21.60;66.20;;;;;;5903704;40;20111;-76
2021/06/08 18:17:57;;;;;;;1.77;0.95;;;21.70;68.90;;;;;;5917340;40;20287;-77
2021/06/08 18:22:04;;;;;;;2.25;0.57;;;21.70;67.00;;;;;;5912121;40;20328;-77
2021/06/08 18:26:07;;;;;;;1.75;0.70;;;21.50;67.40;;;;;;5900839;40;20142;-77
2021/06/08 18:30:12;;;;;;;2.22;1.08;;;21.60;67.20;;;;;;5901289;40;20051;-77
2021/06/08 18:34:14;;;;;;;1.30;0.55;;;21.50;67.20;;;;;;5915461;40;20057;-76
2021/06/08 18:38:17;;;;;;;2.95;0.75;;;21.40;67.40;;;;;;5904315;40;20056;-76
2021/06/08 18:42:18;;;;;;;2.03;0.68;;;21.40;67.20;;;;;;5905264;40;20045;-77
2021/06/08 18:46:21;;;;;;;;;;;21.30;67.10;;;;;;5911001;40;20048;-76
2021/06/08 18:50:23;;;;;;;1.90;1.05;;;21.50;68.80;;;;;;5895625;40;19933;-76
2021/06/08 18:54:27;;;;;;;2.80;0.90;;;21.20;67.50;;;;;;5906233;40;20082;-76
2021/06/08 18:58:29;;;;;;;1.40;0.68;;;21.20;67.00;;;;;;5889727;40;20448;-77
2021/06/08 19:02:31;;;;;;;;;;;21.10;66.80;;;;;;5914947;40;20135;-77
2021/06/08 19:06:34;;;;;;;2.67;0.65;;;21.00;69.00;;;;;;5901185;40;20152;-77
2021/06/08 19:10:36;;;;;;;2.35;0.88;;;20.90;67.10;;;;;;5903180;40;20080;-77
2021/06/08 19:14:38;;;;;;;1.90;0.60;;;20.90;66.90;;;;;;5911223;40;20046;-77
2021/06/08 19:18:40;;;;;;;;;;;20.90;66.60;;;;;;5891812;40;20057;-76
2021/06/08 19:22:42;;;;;;;2.70;0.68;;;20.80;69.20;;;;;;5916767;40;19945;-77
2021/06/08 19:26:44;;;;;;;1.27;0.60;;;20.90;67.10;;;;;;5904107;40;20077;-77
2021/06/08 19:30:46;;;;;;;4.65;1.00;;;20.60;67.00;;;;;;5897936;40;20046;-76
2021/06/08 19:34:48;;;;;;;3.53;1.90;;;20.70;67.00;;;;;;5904746;40;20078;-77
2021/06/08 19:38:51;;;;;;;2.72;1.20;;;21.00;67.40;;;;;;5903161;40;20142;-77
2021/06/08 19:42:53;;;;;;;3.45;1.10;;;20.60;67.20;;;;;;5904213;40;20057;-77
2021/06/08 19:46:55;;;;;;;1.67;0.80;;;20.50;67.30;;;;;;5908473;40;20066;-77
2021/06/08 19:50:57;;;;;;;1.05;0.57;;;20.30;67.30;;;;;;5884838;40;20054;-77
2021/06/08 19:55:00;;;;;;;1.13;0.60;;;20.40;67.70;;;;;;5899756;40;20053;-77
2021/06/08 19:59:02;;;;;;;1.85;0.60;;;20.30;67.70;;;;;;5897277;40;20050;-77
2021/06/08 20:03:04;;;;;;;1.80;0.57;;;20.30;68.20;;;;;;5902804;40;20086;-78
2021/06/08 20:07:06;;;;;;;;;;;20.20;68.30;;;;;;5885776;40;20053;-78
2021/06/08 20:11:08;;;;;;;2.17;1.08;;;20.10;69.80;;;;;;5886515;40;19988;-77
2021/06/08 20:15:10;;;;;;;1.60;0.70;;;20.00;69.00;;;;;;5894809;40;20057;-77
2021/06/08 20:19:12;;;;;;;1.65;0.63;;;19.90;69.00;;;;;;5883080;40;20046;-77
2021/06/08 20:23:15;;;;;;;4.28;0.93;;;19.80;69.10;;;;;;5893877;40;20084;-77
2021/06/08 20:27:20;;;;;;;3.35;0.90;;;19.80;69.20;;;;;;5908684;40;20057;-77
2021/06/08 20:31:22;;;;;;;;;;;19.70;69.30;;;;;;5904106;40;20072;-78
2021/06/08 20:35:24;;;;;;;2.97;1.10;;;19.60;70.10;;;;;;5912083;40;19971;-77
2021/06/08 20:39:27;;;;;;;3.33;1.17;;;19.50;69.60;;;;;;5901036;40;20362;-78
2021/06/08 20:43:29;;;;;;;2.97;1.05;;;19.50;70.30;;;;;;5915354;40;20107;-78
2021/06/08 20:47:31;;;;;;;1.88;1.20;;;19.40;70.50;;;;;;5902358;40;20089;-78
2021/06/08 20:51:32;;;;;;;;;;;19.20;70.70;;;;;;5915890;40;20045;-77
2021/06/08 20:55:34;;;;;;;4.85;1.40;;;19.20;71.00;;;;;;5902855;40;19965;-78
2021/06/08 20:59:36;;;;;;;;;;;19.00;71.10;;;;;;5904817;40;20061;-78
2021/06/08 21:03:38;;;;;;;3.22;1.40;;;18.90;71.00;;;;;;5909152;40;19976;-77
2021/06/08 21:07:41;;;;;;;2.55;1.30;;;18.80;71.60;;;;;;5901476;40;20400;-77
2021/06/08 21:11:42;;;;;;;;;;;19.40;72.20;;;;;;5890940;40;20059;-78
2021/06/08 21:15:46;;;;;;;3.03;1.30;;;18.60;71.50;;;;;;5903546;40;20215;-78
2021/06/08 21:19:48;;;;;;;3.10;1.70;;;19.30;72.50;;;;;;5901662;40;20487;-78
2021/06/08 21:23:50;;;;;;;;;;;18.40;72.00;;;;;;5905084;40;20053;-78
2021/06/08 21:27:52;;;;;;;3.92;2.58;;;18.40;71.60;;;;;;5912453;40;19937;-78
2021/06/08 21:31:54;;;;;;;;;;;19.00;72.20;;;;;;5904645;40;20063;-78
2021/06/08 21:35:58;;;;;;;5.80;2.47;;;18.30;71.40;;;;;;5902892;40;20084;-79
2021/06/08 21:40:01;;;;;;;4.15;2.67;;;18.30;72.10;;;;;;5903297;40;20061;-79
2021/06/08 21:44:04;;;;;;;5.50;3.20;;;18.30;72.10;;;;;;5898562;40;20074;-78
2021/06/08 21:48:06;;;;;;;5.43;3.00;;;18.20;72.30;;;;;;5904906;40;20131;-78
2021/06/08 21:52:07;;;;;;;;;;;18.20;72.50;;;;;;5907849;40;20045;-79
2021/06/08 21:56:09;;;;;;;4.03;2.83;;;18.10;71.80;;;;;;5901505;40;19933;-78
2021/06/08 22:00:18;;;;;;;4.70;3.10;;;17.90;72.60;;;;;;5901143;40;20474;-78
2021/06/08 22:04:20;;;;;;;4.93;3.30;;;18.90;73.30;;;;;;5894503;40;20131;-77
2021/06/08 22:08:22;;;;;;;;;;;17.90;73.20;;;;;;5900512;40;20082;-78
2021/06/08 22:12:24;;;;;;;5.65;2.92;;;17.80;71.90;;;;;;5900363;40;20247;-79
2021/06/08 22:16:26;;;;;;;4.97;2.78;;;17.80;73.00;;;;;;5903720;40;20053;-79
2021/06/08 22:20:28;;;;;;;5.85;3.15;;;17.70;73.30;;;;;;5900528;40;20057;-80
2021/06/08 22:24:30;;;;;;;3.88;2.50;;;17.60;73.40;;;;;;5898691;40;20574;-79
2021/06/08 22:28:32;;;;;;;4.35;2.47;;;17.50;73.90;;;;;;5904604;40;20068;-79
2021/06/08 22:32:39;;;;;;;3.60;2.83;;;17.40;74.10;;;;;;5898524;40;20718;-79
2021/06/08 22:36:42;;;;;;;3.80;2.78;;;17.30;74.50;;;;;;5901120;40;20069;-79
2021/06/08 22:40:43;;;;;;;;;;;17.20;74.70;;;;;;5906095;40;20368;-78
2021/06/08 22:44:45;;;;;;;4.10;2.90;;;18.10;73.70;;;;;;5917250;40;20011;-79
2021/06/08 22:48:47;;;;;;;6.45;3.17;;;17.00;74.30;;;;;;5904587;40;20057;-78
2021/06/08 22:52:49;;;;;;;;;;;17.00;74.60;;;;;;5906809;40;20127;-79
2021/06/08 22:56:54;;;;;;;4.20;2.53;;;16.90;73.30;;;;;;5906794;40;20377;-78
2021/06/08 23:00:59;;;;;;;6.22;3.58;;;16.80;74.50;;;;;;5905029;40;20124;-78
2021/06/08 23:05:01;;;;;;;5.93;3.15;;;16.70;74.80;;;;;;5901520;40;20052;-79
2021/06/08 23:09:04;;;;;;;4.68;2.92;;;16.60;75.00;;;;;;5921943;40;20046;-79
2021/06/08 23:13:06;;;;;;;4.60;2.78;;;16.60;75.30;;;;;;5906610;40;20049;-79
2021/06/08 23:17:08;;;;;;;4.70;3.13;;;16.50;75.60;;;;;;5912383;40;20065;-80
2021/06/08 23:21:10;;;;;;;;;;;16.40;75.70;;;;;;5908635;40;20146;-78
2021/06/08 23:25:13;;;;;;;5.40;3.13;;;16.90;74.50;;;;;;5911486;40;19940;-77
2021/06/08 23:29:15;;;;;;;5.70;2.88;;;16.20;75.50;;;;;;5921834;40;20053;-78
2021/06/08 23:33:17;;;;;;;4.88;3.13;;;16.20;75.90;;;;;;5903226;40;20387;-77
2021/06/08 23:37:19;;;;;;;4.18;2.90;;;15.80;75.50;;;;;;5908574;40;20060;-77
2021/06/08 23:41:21;;;;;;;6.70;3.58;;;16.50;76.20;;;;;;5922427;40;20464;-78
2021/06/08 23:45:23;;;;;;;5.05;3.47;;;16.00;76.10;;;;;;5905965;40;20519;-78
2021/06/08 23:49:24;;;;;;;5.75;3.28;;;15.90;76.20;;;;;;5909058;40;20045;-79
2021/06/08 23:53:26;;;;;;;7.82;3.08;;;15.80;76.40;;;;;;5906193;40;20061;-78
2021/06/08 23:57:28;;;;;;;4.57;3.25;;;15.80;76.60;;;;;;5906611;40;20505;-78
